Time;durP1;ratioP1;P1;durP2;ratioP2;P2;SDS_P1;SDS_P2;PMS_P1;PMS_P2;Temp;Humidity;BMP_temperature;BMP_pressure;BME280_temperature;BME280_humidity;BME280_pressure;Samples;Min_cycle;Max_cycle;Signal;HPM_P1;HPM_P2
2021/01/11 00:02:26;;;;;;;83.77;38.93;;;0.90;2201.60;;;;;;5017458;28;20109;-77
2021/01/11 00:04:52;;;;;;;82.60;37.87;;;0.80;2201.60;;;;;;5016574;28;20376;-77
2021/01/11 00:07:17;;;;;;;83.37;41.43;;;0.90;2201.60;;;;;;4997805;28;20057;-76
2021/01/11 00:09:43;;;;;;;84.43;41.73;;;0.90;2201.60;;;;;;5000059;28;20089;-76
2021/01/11 00:12:10;;;;;;;83.20;41.10;;;0.80;2201.60;;;;;;5000945;28;20049;-78
2021/01/11 00:14:41;;;;;;;80.07;37.90;;;0.80;2201.60;;;;;;5008545;28;20013;-78
2021/01/11 00:17:08;;;;;;;89.70;43.27;;;0.90;2201.60;;;;;;5000458;28;20045;-76
2021/01/11 00:19:41;;;;;;;76.80;38.97;;;0.90;2201.60;;;;;;5024514;28;20034;-76
2021/01/11 00:22:07;;;;;;;79.03;39.63;;;0.90;2201.60;;;;;;5001051;28;20402;-75
2021/01/11 00:24:33;;;;;;;82.97;41.33;;;0.90;2201.60;;;;;;4998796;28;20152;-74
2021/01/11 00:27:02;;;;;;;82.77;39.63;;;0.90;2201.60;;;;;;5015649;28;20034;-75
2021/01/11 00:29:29;;;;;;;82.50;41.10;;;0.90;2201.60;;;;;;5015800;28;20116;-75
2021/01/11 00:31:57;;;;;;;78.07;38.27;;;0.90;2201.60;;;;;;5013659;28;20745;-75
2021/01/11 00:34:24;;;;;;;81.77;40.27;;;0.90;2201.60;;;;;;5018776;28;20089;-76
2021/01/11 00:36:57;;;;;;;85.20;41.20;;;0.90;2201.60;;;;;;5022225;28;20022;-77
2021/01/11 00:39:31;;;;;;;80.43;40.65;;;0.90;2201.60;;;;;;4986744;28;20038;-78
2021/01/11 00:42:01;;;;;;;87.47;39.75;;;0.90;2201.60;;;;;;5003450;28;20026;-72
2021/01/11 00:44:28;;;;;;;81.27;39.93;;;0.90;2201.60;;;;;;5012306;28;20080;-80
2021/01/11 00:47:03;;;;;;;80.63;42.43;;;25.90;2201.60;;;;;;5015140;28;20018;-73
2021/01/11 00:49:29;;;;;;;79.13;40.05;;;0.90;2201.60;;;;;;5019497;28;20026;-77
2021/01/11 00:51:55;;;;;;;86.23;41.13;;;0.90;2201.60;;;;;;5018760;28;20490;-75
2021/01/11 00:54:22;;;;;;;85.17;42.00;;;25.60;2201.60;;;;;;5018565;28;20028;-75
2021/01/11 00:56:48;;;;;;;80.77;39.87;;;25.60;2201.60;;;;;;4985359;28;20045;-74
2021/01/11 00:59:14;;;;;;;81.90;40.80;;;25.60;2201.60;;;;;;4998159;28;20378;-74
2021/01/11 01:01:50;;;;;;;85.87;40.27;;;25.60;2201.60;;;;;;4996501;28;20022;-74
2021/01/11 01:04:17;;;;;;;86.10;40.10;;;25.60;2201.60;;;;;;4997150;28;20566;-74
2021/01/11 01:06:43;;;;;;;86.00;41.30;;;25.70;2201.60;;;;;;4999568;28;20026;-74
2021/01/11 01:09:09;;;;;;;84.77;40.77;;;25.70;2201.60;;;;;;5015155;28;20057;-74
2021/01/11 01:11:39;;;;;;;80.13;39.50;;;25.70;2201.60;;;;;;4999320;28;20443;-74
2021/01/11 01:14:06;;;;;;;79.13;39.67;;;25.70;2201.60;;;;;;5015661;28;20029;-74
2021/01/11 01:16:32;;;;;;;87.13;41.57;;;25.70;2201.60;;;;;;5002066;28;20026;-74
2021/01/11 01:18:58;;;;;;;83.63;41.30;;;25.70;2201.60;;;;;;5017025;28;20030;-74
2021/01/11 01:21:24;;;;;;;81.97;41.33;;;25.70;2201.60;;;;;;5017927;28;20030;-74
2021/01/11 01:23:50;;;;;;;80.50;38.33;;;25.70;2201.60;;;;;;5016017;28;20501;-74
2021/01/11 01:26:16;;;;;;;86.23;41.43;;;25.70;2201.60;;;;;;4997116;28;20426;-74
2021/01/11 01:28:41;;;;;;;81.00;39.93;;;25.70;2201.60;;;;;;4998002;28;20034;-74
2021/01/11 01:31:07;;;;;;;81.03;39.30;;;25.70;2201.60;;;;;;5020884;28;20429;-74
2021/01/11 01:33:33;;;;;;;83.60;40.30;;;25.70;2201.60;;;;;;5018081;28;20030;-74
2021/01/11 01:35:59;;;;;;;78.73;39.17;;;25.70;2201.60;;;;;;5018377;28;20026;-75
2021/01/11 01:38:25;;;;;;;82.33;39.43;;;25.70;2201.60;;;;;;5020703;28;20037;-75
2021/01/11 01:40:51;;;;;;;84.77;40.87;;;25.70;2201.60;;;;;;5004016;28;20363;-75
2021/01/11 01:43:17;;;;;;;84.37;42.87;;;25.70;2201.60;;;;;;4999885;28;20049;-75
2021/01/11 01:45:43;;;;;;;85.40;42.00;;;25.70;2201.60;;;;;;5018144;28;20084;-75
2021/01/11 01:48:10;;;;;;;83.60;39.67;;;25.70;2201.60;;;;;;5015211;28;20034;-75
2021/01/11 01:50:37;;;;;;;86.20;41.57;;;25.70;2201.60;;;;;;5015395;28;20026;-75
2021/01/11 01:53:04;;;;;;;81.23;40.63;;;25.70;2201.60;;;;;;4999796;28;20040;-75
2021/01/11 01:55:30;;;;;;;81.97;40.47;;;25.80;2201.60;;;;;;4999589;28;20108;-76
2021/01/11 01:58:02;;;;;;;81.57;41.97;;;25.80;2201.60;;;;;;5018274;28;20425;-75
2021/01/11 02:00:28;;;;;;;86.57;41.33;;;25.80;2201.60;;;;;;5000581;28;20077;-75
2021/01/11 02:02:55;;;;;;;83.50;39.57;;;26.10;2201.60;;;;;;5018403;28;20042;-75
2021/01/11 02:05:26;;;;;;;86.53;41.17;;;25.80;2201.60;;;;;;5001033;28;20024;-76
2021/01/11 02:08:04;;;;;;;83.20;40.67;;;25.70;2201.60;;;;;;5017929;28;20029;-76
2021/01/11 02:11:02;;;;;;;82.30;39.93;;;25.70;2201.60;;;;;;5003553;28;20127;-75
2021/01/11 02:13:32;;;;;;;80.67;40.23;;;25.80;2201.60;;;;;;5016509;28;20033;-75
2021/01/11 02:16:23;;;;;;;81.83;39.63;;;25.70;2201.60;;;;;;5018314;28;20037;-75
2021/01/11 02:19:18;;;;;;;80.07;38.53;;;25.70;2201.60;;;;;;5001177;28;20029;-76
2021/01/11 02:22:07;;;;;;;79.17;38.87;;;25.70;2201.60;;;;;;4999621;28;20018;-76
2021/01/11 02:25:19;;;;;;;79.93;38.40;;;0.90;2201.60;;;;;;5000183;28;20150;-75
2021/01/11 02:28:06;;;;;;;80.77;37.90;;;25.70;2201.60;;;;;;5017606;28;20057;-75
2021/01/11 02:30:43;;;;;;;80.00;39.13;;;25.70;2201.60;;;;;;4980100;28;20037;-75
2021/01/11 02:33:13;;;;;;;78.13;38.50;;;25.60;2201.60;;;;;;5020301;28;20458;-75
2021/01/11 02:35:48;;;;;;;80.13;38.70;;;25.70;2201.60;;;;;;5004456;28;20030;-75
2021/01/11 02:38:20;;;;;;;79.40;38.57;;;25.70;2201.60;;;;;;5003301;28;20086;-75
2021/01/11 02:40:50;;;;;;;80.93;38.37;;;25.70;2201.60;;;;;;5020606;28;20038;-75
2021/01/11 02:43:18;;;;;;;75.77;39.33;;;25.70;2201.60;;;;;;5002741;28;20042;-75
2021/01/11 02:45:45;;;;;;;76.67;37.40;;;25.70;2201.60;;;;;;5003340;28;20429;-75
2021/01/11 02:48:27;;;;;;;75.87;37.27;;;25.70;2201.60;;;;;;5003676;28;20037;-75
2021/01/11 02:51:19;;;;;;;75.87;37.73;;;25.70;2201.60;;;;;;5003258;28;20025;-75
2021/01/11 02:53:47;;;;;;;74.77;37.83;;;25.70;2201.60;;;;;;5020052;28;20018;-75
2021/01/11 02:56:22;;;;;;;78.13;38.27;;;25.70;2201.60;;;;;;5002597;28;20049;-76
2021/01/11 02:59:03;;;;;;;75.47;37.23;;;25.70;2201.60;;;;;;5020489;28;20010;-75
2021/01/11 03:01:35;;;;;;;81.27;38.03;;;25.70;2201.60;;;;;;5020351;28;20030;-75
2021/01/11 03:04:06;;;;;;;74.87;38.83;;;25.70;2201.60;;;;;;5018038;28;20046;-75
2021/01/11 03:06:33;;;;;;;76.87;38.37;;;25.70;2201.60;;;;;;5003199;28;20056;-76
2021/01/11 03:09:12;;;;;;;74.63;38.30;;;25.80;2201.60;;;;;;5020637;28;20022;-75
2021/01/11 03:11:43;;;;;;;71.47;35.50;;;25.80;2201.60;;;;;;5004769;28;20121;-75
2021/01/11 03:14:14;;;;;;;73.23;36.57;;;25.70;2201.60;;;;;;5001564;28;20005;-75
2021/01/11 03:16:44;;;;;;;78.33;38.57;;;25.80;2201.60;;;;;;5002878;28;20044;-75
2021/01/11 03:19:10;;;;;;;69.20;35.30;;;25.70;2201.60;;;;;;5018942;28;20037;-75
2021/01/11 03:21:37;;;;;;;69.90;36.13;;;25.70;2201.60;;;;;;5001836;28;20033;-75
2021/01/11 03:24:04;;;;;;;68.73;34.60;;;25.70;2201.60;;;;;;5004394;28;20124;-75
2021/01/11 03:26:29;;;;;;;74.43;36.53;;;25.70;2201.60;;;;;;5001416;28;20026;-75
2021/01/11 03:28:55;;;;;;;76.37;37.43;;;25.80;2201.60;;;;;;5001113;28;20081;-76
2021/01/11 03:31:22;;;;;;;70.20;35.23;;;25.80;2201.60;;;;;;5001264;28;20067;-75
2021/01/11 03:33:48;;;;;;;70.93;36.90;;;25.80;2201.60;;;;;;5018737;28;20030;-75
2021/01/11 03:36:15;;;;;;;76.20;38.23;;;25.70;2201.60;;;;;;5001113;28;20030;-76
2021/01/11 03:38:41;;;;;;;80.67;40.23;;;25.70;2201.60;;;;;;5019554;28;20029;-76
2021/01/11 03:41:08;;;;;;;75.60;39.70;;;25.70;2201.60;;;;;;4999439;28;20036;-75
2021/01/11 03:43:57;;;;;;;77.67;37.90;;;25.70;2201.60;;;;;;5019349;28;20033;-75
2021/01/11 03:46:22;;;;;;;74.17;38.43;;;25.80;2201.60;;;;;;4997097;28;20074;-75
2021/01/11 03:48:49;;;;;;;71.67;38.33;;;25.70;2201.60;;;;;;5018871;28;20037;-76
2021/01/11 03:51:15;;;;;;;71.83;36.97;;;25.70;2201.60;;;;;;5000809;28;20022;-76
2021/01/11 03:53:44;;;;;;;68.00;35.43;;;25.70;2201.60;;;;;;5020129;28;20021;-75
2021/01/11 03:56:10;;;;;;;68.27;35.57;;;25.80;2201.60;;;;;;4999704;28;20479;-75
2021/01/11 03:58:36;;;;;;;67.17;35.80;;;25.70;2201.60;;;;;;5000586;28;20033;-75
2021/01/11 04:01:03;;;;;;;68.37;35.67;;;25.70;2201.60;;;;;;5000978;28;20490;-76
2021/01/11 04:03:30;;;;;;;70.87;36.60;;;25.80;2201.60;;;;;;5001032;28;20033;-75
2021/01/11 04:05:57;;;;;;;68.77;35.07;;;25.80;2201.60;;;;;;5018541;28;20037;-75
2021/01/11 04:08:24;;;;;;;66.50;35.63;;;25.80;2201.60;;;;;;5000486;28;20033;-76
2021/01/11 04:10:50;;;;;;;66.20;35.07;;;0.80;2201.60;;;;;;5001076;28;20034;-76
2021/01/11 04:13:20;;;;;;;63.53;33.83;;;25.80;2201.60;;;;;;5000420;28;20757;-75
2021/01/11 04:15:47;;;;;;;65.23;33.57;;;25.80;2201.60;;;;;;5001889;28;20026;-75
2021/01/11 04:18:14;;;;;;;64.10;34.43;;;25.90;2201.60;;;;;;5017621;28;20104;-75
2021/01/11 04:20:41;;;;;;;60.87;32.93;;;25.80;2201.60;;;;;;5019648;28;20474;-75
2021/01/11 04:23:06;;;;;;;59.23;32.83;;;25.80;2201.60;;;;;;5002552;28;20092;-76
2021/01/11 04:25:35;;;;;;;59.93;32.97;;;25.80;2201.60;;;;;;5001730;28;20022;-76
2021/01/11 04:28:04;;;;;;;64.13;34.23;;;25.80;2201.60;;;;;;5001610;28;20025;-76
2021/01/11 04:30:30;;;;;;;71.63;37.13;;;25.80;2201.60;;;;;;5001977;28;20045;-76
2021/01/11 04:32:56;;;;;;;70.73;36.27;;;25.80;2201.60;;;;;;5019869;28;20131;-75
2021/01/11 04:35:29;;;;;;;67.40;34.70;;;25.90;2201.60;;;;;;5020065;28;20034;-74
2021/01/11 04:37:56;;;;;;;64.83;32.43;;;25.80;2201.60;;;;;;5018932;28;20077;-75
2021/01/11 04:40:23;;;;;;;59.67;32.87;;;25.80;2201.60;;;;;;5001633;28;20434;-76
2021/01/11 04:43:10;;;;;;;58.60;32.70;;;25.80;2201.60;;;;;;5001569;28;20038;-75
2021/01/11 04:45:38;;;;;;;60.90;32.63;;;25.80;2201.60;;;;;;5000628;28;20113;-76
2021/01/11 04:48:04;;;;;;;63.27;33.00;;;25.80;2201.60;;;;;;5019214;28;20026;-75
2021/01/11 04:50:30;;;;;;;62.17;34.10;;;25.80;2201.60;;;;;;5019255;28;20022;-76
2021/01/11 04:53:00;;;;;;;63.53;34.63;;;25.90;2201.60;;;;;;5000487;28;20036;-76
2021/01/11 04:55:34;;;;;;;62.97;33.17;;;25.90;2201.60;;;;;;5018434;28;20018;-75
2021/01/11 04:58:13;;;;;;;58.03;32.40;;;25.90;2201.60;;;;;;5017384;28;20033;-75
2021/01/11 05:00:43;;;;;;;55.87;30.23;;;25.90;2201.60;;;;;;5001355;28;20113;-76
2021/01/11 05:03:10;;;;;;;61.37;32.57;;;25.90;2201.60;;;;;;5000099;28;20030;-76
2021/01/11 05:05:43;;;;;;;56.00;31.90;;;25.90;2201.60;;;;;;5001541;28;20056;-76
2021/01/11 05:08:09;;;;;;;65.15;32.22;;;25.90;2201.60;;;;;;4999716;28;20033;-75
2021/01/11 05:10:37;;;;;;;70.50;35.23;;;25.90;2201.60;;;;;;5001433;28;20034;-75
2021/01/11 05:13:11;;;;;;;73.13;37.80;;;25.90;2201.60;;;;;;5000916;28;20037;-75
2021/01/11 05:15:38;;;;;;;70.07;36.85;;;26.00;2201.60;;;;;;5016065;28;20034;-75
2021/01/11 05:18:38;;;;;;;65.37;35.10;;;25.90;2201.60;;;;;;5015977;28;20060;-75
2021/01/11 05:21:04;;;;;;;64.10;33.23;;;25.80;2201.60;;;;;;4999727;28;20041;-75
2021/01/11 05:23:38;;;;;;;62.73;33.83;;;25.80;2201.60;;;;;;5018512;28;20053;-75
2021/01/11 05:26:15;;;;;;;;;;;25.80;2201.60;;;;;;5016539;28;20029;-75
2021/01/11 05:28:44;;;;;;;58.07;32.10;;;25.80;2201.60;;;;;;5014431;28;19906;-75
2021/01/11 05:31:13;;;;;;;65.50;36.23;;;25.80;2201.60;;;;;;4998974;28;20026;-75
2021/01/11 05:33:52;;;;;;;63.27;35.43;;;25.80;2201.60;;;;;;4998994;28;20128;-75
2021/01/11 05:36:19;;;;;;;63.80;34.53;;;25.80;2201.60;;;;;;5016627;28;20026;-75
2021/01/11 05:38:46;;;;;;;68.40;35.70;;;25.90;2201.60;;;;;;4999222;28;20446;-75
2021/01/11 05:41:16;;;;;;;64.33;37.07;;;25.90;2201.60;;;;;;5016368;28;20026;-76
2021/01/11 05:43:42;;;;;;;75.83;40.20;;;25.80;2201.60;;;;;;4998823;28;20100;-75
2021/01/11 05:46:28;;;;;;;73.33;38.67;;;25.90;2201.60;;;;;;4995065;28;20051;-75
2021/01/11 05:49:16;;;;;;;63.70;35.40;;;25.90;2201.60;;;;;;4995843;28;20045;-75
2021/01/11 05:51:48;;;;;;;71.80;37.03;;;25.90;2201.60;;;;;;4998615;28;20624;-76
2021/01/11 05:54:29;;;;;;;72.17;37.37;;;25.90;2201.60;;;;;;5002022;28;20038;-75
2021/01/11 05:56:59;;;;;;;66.57;36.37;;;25.80;2201.60;;;;;;4998846;28;20402;-75
2021/01/11 05:59:29;;;;;;;78.00;40.17;;;25.90;2201.60;;;;;;4997119;28;20033;-76
2021/01/11 06:02:04;;;;;;;72.03;38.57;;;25.90;2201.60;;;;;;4998943;28;20467;-76
2021/01/11 06:04:31;;;;;;;71.23;36.53;;;25.90;2201.60;;;;;;5001104;28;20569;-76
2021/01/11 06:06:57;;;;;;;67.50;36.13;;;25.80;2201.60;;;;;;5002104;28;20030;-75
2021/01/11 06:09:23;;;;;;;70.80;37.50;;;25.90;2201.60;;;;;;5000885;28;20032;-75
2021/01/11 06:11:50;;;;;;;73.80;37.77;;;25.90;2201.60;;;;;;5000539;28;20094;-75
2021/01/11 06:14:20;;;;;;;69.77;37.73;;;25.90;2201.60;;;;;;5001091;28;20387;-75
2021/01/11 06:16:50;;;;;;;60.47;31.67;;;25.90;2201.60;;;;;;5001416;28;20380;-75
2021/01/11 06:19:15;;;;;;;60.27;33.33;;;25.90;2201.60;;;;;;4999452;28;20118;-75
2021/01/11 06:22:01;;;;;;;65.83;35.07;;;26.00;2201.60;;;;;;5000561;28;20058;-76
2021/01/11 06:24:36;;;;;;;64.27;34.77;;;25.90;2201.60;;;;;;5001754;28;20505;-75
2021/01/11 06:27:16;;;;;;;62.97;35.40;;;25.90;2201.60;;;;;;5003088;28;20026;-75
2021/01/11 06:29:52;;;;;;;56.63;32.77;;;26.00;2201.60;;;;;;5001657;28;20555;-75
2021/01/11 06:32:23;;;;;;;55.87;31.37;;;25.90;2201.60;;;;;;5002672;28;20106;-75
2021/01/11 06:34:49;;;;;;;54.40;30.63;;;25.90;2201.60;;;;;;5003694;28;20072;-76
2021/01/11 06:37:20;;;;;;;59.50;33.03;;;25.90;2201.60;;;;;;5000465;28;20038;-76
2021/01/11 06:39:47;;;;;;;60.30;34.27;;;25.90;2201.60;;;;;;5000249;28;20030;-76
2021/01/11 06:42:15;;;;;;;62.67;34.17;;;26.00;2201.60;;;;;;4998062;28;20153;-76
2021/01/11 06:44:50;;;;;;;54.00;30.13;;;26.00;2201.60;;;;;;5002476;28;20550;-76
2021/01/11 06:47:29;;;;;;;54.10;30.87;;;26.00;2201.60;;;;;;5000897;28;20030;-76
2021/01/11 06:50:09;;;;;;;61.23;34.73;;;26.00;2201.60;;;;;;5020375;28;20448;-76
2021/01/11 06:52:36;;;;;;;67.87;37.77;;;26.00;2201.60;;;;;;5019323;28;20024;-75
2021/01/11 06:55:18;;;;;;;87.93;48.53;;;26.00;2201.60;;;;;;5003928;28;20029;-76
2021/01/11 06:57:47;;;;;;;85.73;44.97;;;26.00;2201.60;;;;;;5020072;28;20559;-75
2021/01/11 07:00:18;;;;;;;73.73;40.67;;;26.00;2201.60;;;;;;5001795;28;20024;-75
2021/01/11 07:02:44;;;;;;;66.83;37.17;;;26.10;2201.60;;;;;;5018624;28;20113;-75
2021/01/11 07:05:33;;;;;;;63.50;36.03;;;26.10;2201.60;;;;;;5003648;28;20045;-75
2021/01/11 07:08:12;;;;;;;55.03;31.90;;;26.20;2201.60;;;;;;4992468;28;20026;-75
2021/01/11 07:10:41;;;;;;;53.67;32.10;;;26.30;2201.60;;;;;;5020165;28;20478;-75
2021/01/11 07:13:19;;;;;;;58.67;33.13;;;26.20;2201.60;;;;;;5020920;28;20024;-75
2021/01/11 07:15:51;;;;;;;55.07;31.10;;;26.20;2201.60;;;;;;5000847;28;20041;-76
2021/01/11 07:18:41;;;;;;;54.07;31.43;;;26.20;2201.60;;;;;;5019280;28;20044;-75
2021/01/11 07:21:15;;;;;;;56.93;31.87;;;26.30;2201.60;;;;;;5001877;28;20021;-75
2021/01/11 07:23:45;;;;;;;53.00;30.77;;;26.20;2201.60;;;;;;5000054;28;20034;-75
2021/01/11 07:26:16;;;;;;;56.50;33.53;;;51.60;2227.20;;;;;;4999695;28;20006;-76
2021/01/11 07:28:51;;;;;;;59.60;34.83;;;26.40;2201.60;;;;;;4998941;28;20038;-76
2021/01/11 07:31:19;;;;;;;78.53;42.63;;;26.40;2201.60;;;;;;4998669;28;20049;-76
2021/01/11 07:33:45;;;;;;;82.27;46.30;;;26.50;2201.60;;;;;;5019028;28;20052;-75
2021/01/11 07:36:19;;;;;;;99.23;56.00;;;26.50;2201.60;;;;;;5019742;28;20041;-75
2021/01/11 07:38:45;;;;;;;110.28;62.92;;;26.50;2201.60;;;;;;5001740;28;20045;-77
2021/01/11 07:41:26;;;;;;;170.83;92.70;;;26.50;2201.60;;;;;;5020312;28;20034;-76
2021/01/11 07:43:52;;;;;;;157.93;83.90;;;26.50;2201.60;;;;;;5019623;28;20382;-75
2021/01/11 07:46:22;;;;;;;214.97;107.30;;;26.50;2201.60;;;;;;5018524;28;20052;-75
2021/01/11 07:48:48;;;;;;;217.87;101.43;;;25.90;2201.60;;;;;;5018105;28;20502;-75
2021/01/11 07:51:14;;;;;;;235.77;105.80;;;26.50;2201.60;;;;;;5021193;28;20020;-75
2021/01/11 07:53:40;;;;;;;220.63;101.20;;;26.40;2201.60;;;;;;5001743;28;20418;-76
2021/01/11 07:56:09;;;;;;;210.77;93.30;;;26.40;2201.60;;;;;;5001048;28;20090;-76
2021/01/11 07:58:39;;;;;;;135.93;69.70;;;26.40;2201.60;;;;;;5000138;28;20017;-76
2021/01/11 08:01:08;;;;;;;131.87;63.63;;;26.50;2201.60;;;;;;5022714;28;20113;-75
2021/01/11 08:03:36;;;;;;;228.27;88.87;;;51.20;2227.20;;;;;;5022821;28;20490;-75
2021/01/11 08:06:06;;;;;;;320.90;126.47;;;51.20;2227.20;;;;;;5022121;28;20544;-76
2021/01/11 08:08:35;;;;;;;219.43;93.13;;;26.50;2201.60;;;;;;5030304;28;20383;-76
2021/01/11 08:11:05;;;;;;;243.73;113.30;;;51.20;2227.20;;;;;;5023394;28;20437;-75
2021/01/11 08:13:32;;;;;;;225.57;109.13;;;51.20;2227.20;;;;;;5022657;28;20025;-76
2021/01/11 08:16:12;;;;;;;174.30;87.97;;;51.20;2227.20;;;;;;5004409;28;20072;-75
2021/01/11 08:18:39;;;;;;;205.70;96.27;;;51.20;2227.20;;;;;;5020825;28;20026;-76
2021/01/11 08:21:12;;;;;;;225.63;94.47;;;51.20;2227.20;;;;;;5003401;28;20022;-75
2021/01/11 08:23:42;;;;;;;176.07;79.47;;;51.20;2227.20;;;;;;5009830;28;20042;-76
2021/01/11 08:26:19;;;;;;;131.60;68.30;;;51.30;2227.20;;;;;;5027162;28;20022;-75
2021/01/11 08:28:45;;;;;;;147.63;74.30;;;51.40;2227.20;;;;;;5013510;28;20026;-76
2021/01/11 08:31:12;;;;;;;207.97;104.40;;;51.30;2227.20;;;;;;5003744;28;20097;-76
2021/01/11 08:33:39;;;;;;;124.60;69.50;;;51.30;2227.20;;;;;;5023601;28;20105;-75
2021/01/11 08:36:37;;;;;;;115.17;66.00;;;51.40;2227.20;;;;;;5007290;28;20026;-75
2021/01/11 08:39:10;;;;;;;93.90;56.73;;;51.40;2227.20;;;;;;5024352;28;20049;-75
2021/01/11 08:41:54;;;;;;;70.00;42.42;;;51.50;2227.20;;;;;;5022618;28;20026;-76
2021/01/11 08:44:35;;;;;;;61.43;36.97;;;51.60;2227.20;;;;;;5006711;28;20066;-76
2021/01/11 08:47:08;;;;;;;62.00;36.83;;;51.60;2227.20;;;;;;5003851;28;20502;-76
2021/01/11 08:49:54;;;;;;;60.10;36.85;;;51.60;2227.20;;;;;;5008401;28;20109;-75
2021/01/11 08:52:27;;;;;;;77.60;46.40;;;51.70;2227.20;;;;;;5004141;28;20028;-76
2021/01/11 08:54:53;;;;;;;90.63;48.90;;;51.80;2227.20;;;;;;5004331;28;20052;-76
2021/01/11 08:57:19;;;;;;;101.27;52.00;;;51.80;2227.20;;;;;;5020949;28;20014;-76
2021/01/11 08:59:50;;;;;;;78.30;40.83;;;77.00;2227.20;;;;;;5022729;28;20029;-76
2021/01/11 09:02:24;;;;;;;64.80;37.00;;;51.80;2227.20;;;;;;5024036;28;20010;-76
2021/01/11 09:04:50;;;;;;;72.57;38.23;;;51.80;2227.20;;;;;;5025953;28;20021;-75
2021/01/11 09:07:31;;;;;;;118.13;52.50;;;51.80;2227.20;;;;;;5026272;28;20029;-75
2021/01/11 09:10:19;;;;;;;114.87;52.80;;;51.80;2227.20;;;;;;5006428;28;20061;-75
2021/01/11 09:12:46;;;;;;;126.17;69.33;;;51.90;2227.20;;;;;;5021687;28;20033;-76
2021/01/11 09:15:17;;;;;;;105.43;63.97;;;51.90;2227.20;;;;;;5000725;28;20120;-76
2021/01/11 09:17:43;;;;;;;114.50;65.93;;;51.90;2227.20;;;;;;5017737;28;20021;-75
2021/01/11 09:20:09;;;;;;;118.63;61.90;;;51.80;2227.20;;;;;;5018957;28;20377;-77
2021/01/11 09:22:41;;;;;;;163.70;75.40;;;51.80;2227.20;;;;;;4999748;28;20073;-76
2021/01/11 09:25:11;;;;;;;198.00;86.63;;;51.80;2227.20;;;;;;5023085;28;20045;-75
2021/01/11 09:27:53;;;;;;;194.70;91.20;;;51.90;2227.20;;;;;;5027810;28;20014;-76
2021/01/11 09:30:21;;;;;;;295.00;126.10;;;51.90;2227.20;;;;;;5022911;28;20041;-75
2021/01/11 09:32:47;;;;;;;206.80;97.40;;;51.80;2227.20;;;;;;5006654;28;20053;-76
2021/01/11 09:35:15;;;;;;;116.80;63.63;;;51.90;2227.20;;;;;;5004266;28;20042;-75
2021/01/11 09:37:44;;;;;;;119.90;67.60;;;51.80;2227.20;;;;;;5001811;28;20029;-76
2021/01/11 09:40:11;;;;;;;125.80;68.10;;;51.90;2227.20;;;;;;5004113;28;20006;-76
2021/01/11 09:42:38;;;;;;;130.40;67.33;;;51.80;2227.20;;;;;;5023204;28;20033;-76
2021/01/11 09:45:06;;;;;;;98.23;53.47;;;52.00;2227.20;;;;;;5021092;28;20053;-75
2021/01/11 09:47:33;;;;;;;87.50;48.73;;;52.00;2227.20;;;;;;5019301;28;20086;-75
2021/01/11 09:50:05;;;;;;;91.17;51.17;;;52.10;2227.20;;;;;;5003533;28;20065;-75
2021/01/11 09:52:42;;;;;;;73.17;41.67;;;52.10;2227.20;;;;;;5010516;28;20026;-75
2021/01/11 09:55:14;;;;;;;88.50;49.43;;;76.80;2227.20;;;;;;5022038;28;20029;-75
2021/01/11 09:57:42;;;;;;;102.30;57.97;;;76.90;2227.20;;;;;;5005996;28;20072;-75
2021/01/11 10:00:12;;;;;;;124.30;65.37;;;76.90;2227.20;;;;;;5001875;28;20497;-75
2021/01/11 10:02:45;;;;;;;116.87;60.63;;;76.90;2227.20;;;;;;5023316;28;20025;-75
2021/01/11 10:05:11;;;;;;;117.47;56.33;;;76.90;2227.20;;;;;;5005939;28;20025;-74
2021/01/11 10:07:37;;;;;;;74.13;41.43;;;77.00;2227.20;;;;;;5002868;28;20033;-75
2021/01/11 10:10:03;;;;;;;92.50;49.20;;;77.00;2227.20;;;;;;4999237;28;20456;-75
2021/01/11 10:12:29;;;;;;;83.37;46.37;;;77.00;2201.60;;;;;;5002089;28;20048;-75
2021/01/11 10:14:56;;;;;;;97.67;52.67;;;77.10;2176.00;;;;;;5000358;28;20479;-75
2021/01/11 10:17:33;;;;;;;119.57;60.67;;;77.00;2176.00;;;;;;5019366;28;20021;-75
2021/01/11 10:19:58;;;;;;;99.67;54.70;;;77.10;2176.00;;;;;;4968879;28;20479;-76
2021/01/11 10:22:26;;;;;;;71.90;43.40;;;77.10;2201.60;;;;;;4998548;28;20032;-78
2021/01/11 10:24:51;;;;;;;96.07;52.90;;;77.10;2176.00;;;;;;5017624;28;20065;-76
2021/01/11 10:27:18;;;;;;;81.27;46.77;;;77.10;2201.60;;;;;;5016863;28;20057;-75
2021/01/11 10:29:43;;;;;;;193.80;96.03;;;77.00;2201.60;;;;;;5015834;28;20034;-76
2021/01/11 10:32:09;;;;;;;163.50;89.53;;;77.10;2201.60;;;;;;4998142;28;20032;-75
2021/01/11 10:34:40;;;;;;;93.07;63.70;;;77.20;2201.60;;;;;;5015977;28;20026;-77
2021/01/11 10:37:06;;;;;;;112.00;79.07;;;77.20;2176.00;;;;;;4982084;28;20212;-80
2021/01/11 10:39:32;;;;;;;106.47;77.60;;;77.10;2176.00;;;;;;5015775;28;20092;-76
2021/01/11 10:41:58;;;;;;;88.30;63.00;;;77.10;2176.00;;;;;;5016099;28;20033;-76
2021/01/11 10:44:34;;;;;;;124.10;66.97;;;77.20;2201.60;;;;;;4997933;28;20038;-89
2021/01/11 10:47:01;;;;;;;132.87;78.07;;;77.30;2201.60;;;;;;4996440;28;20054;-81
2021/01/11 10:49:28;;;;;;;113.20;60.87;;;77.20;2201.60;;;;;;4992294;28;20128;-76
2021/01/11 10:51:59;;;;;;;99.33;57.60;;;77.30;2176.00;;;;;;4994726;28;20030;-76
2021/01/11 10:54:27;;;;;;;88.33;49.43;;;77.30;2201.60;;;;;;4995919;28;20038;-78
2021/01/11 10:56:54;;;;;;;81.77;49.60;;;77.20;2176.00;;;;;;4995558;28;20364;-78
2021/01/11 10:59:20;;;;;;;106.73;57.57;;;77.20;2201.60;;;;;;4995189;28;20037;-76
2021/01/11 11:01:49;;;;;;;137.67;66.50;;;77.10;2176.00;;;;;;4994022;28;20035;-76
2021/01/11 11:04:15;;;;;;;129.17;64.70;;;77.00;2176.00;;;;;;4995110;28;20046;-75
2021/01/11 11:06:40;;;;;;;98.97;54.90;;;77.00;2201.60;;;;;;4995774;28;20026;-77
2021/01/11 11:09:07;;;;;;;106.87;58.80;;;77.10;2201.60;;;;;;4993585;28;20038;-77
2021/01/11 11:11:33;;;;;;;114.93;65.30;;;77.00;2201.60;;;;;;4995392;28;20034;-77
2021/01/11 11:13:59;;;;;;;167.47;75.63;;;77.00;2201.60;;;;;;4994790;28;20030;-75
2021/01/11 11:16:25;;;;;;;214.10;93.27;;;77.00;2201.60;;;;;;4996279;28;20097;-75
2021/01/11 11:18:51;;;;;;;163.83;75.70;;;77.00;2227.20;;;;;;4997364;28;20050;-75
2021/01/11 11:21:16;;;;;;;202.60;97.23;;;76.80;2201.60;;;;;;4994741;28;20026;-75
2021/01/11 11:23:43;;;;;;;138.20;69.43;;;76.90;2201.60;;;;;;4995094;28;20049;-75
2021/01/11 11:26:10;;;;;;;86.67;50.43;;;76.90;2201.60;;;;;;4994250;28;20022;-75
2021/01/11 11:28:37;;;;;;;118.90;61.97;;;76.90;2201.60;;;;;;4995702;28;20035;-75
2021/01/11 11:31:05;;;;;;;130.03;69.83;;;76.90;2227.20;;;;;;4994928;28;20035;-75
2021/01/11 11:33:31;;;;;;;112.90;63.50;;;76.90;2227.20;;;;;;4995027;28;20376;-75
2021/01/11 11:35:58;;;;;;;97.73;54.57;;;76.80;2227.20;;;;;;4997426;28;20034;-76
2021/01/11 11:38:24;;;;;;;118.30;61.87;;;52.10;2227.20;;;;;;4995561;28;20527;-75
2021/01/11 11:40:55;;;;;;;87.47;50.00;;;52.10;2227.20;;;;;;4994990;28;20117;-76
2021/01/11 11:43:22;;;;;;;86.50;48.70;;;76.80;2227.20;;;;;;4996092;28;20043;-75
2021/01/11 11:45:51;;;;;;;126.07;62.57;;;77.30;2227.20;;;;;;4992115;28;20047;-78
2021/01/11 11:48:17;;;;;;;119.47;62.27;;;76.80;2227.20;;;;;;4996669;28;20034;-77
2021/01/11 11:50:43;;;;;;;431.17;307.40;;;52.10;2227.20;;;;;;4997061;28;20376;-77
2021/01/11 11:53:09;;;;;;;582.93;403.77;;;52.10;2227.20;;;;;;4994483;28;20026;-88
2021/01/11 11:55:38;;;;;;;547.67;350.33;;;52.10;2227.20;;;;;;4995701;28;20030;-78
2021/01/11 11:58:05;;;;;;;118.00;68.53;;;52.10;2227.20;;;;;;4996769;28;20030;-76
2021/01/11 12:00:30;;;;;;;209.60;121.40;;;76.80;2227.20;;;;;;4993456;28;20089;-76
2021/01/11 12:03:02;;;;;;;489.63;216.07;;;52.10;2227.20;;;;;;4999022;28;20027;-74
2021/01/11 12:05:37;;;;;;;298.20;119.77;;;52.10;2227.20;;;;;;4997280;28;20046;-78
2021/01/11 12:08:05;;;;;;;131.87;70.33;;;52.10;2227.20;;;;;;4998954;28;20060;-76
2021/01/11 12:10:30;;;;;;;86.17;49.33;;;52.10;2227.20;;;;;;4996891;28;20034;-82
2021/01/11 12:12:56;;;;;;;81.83;44.83;;;52.00;2227.20;;;;;;4998748;28;20030;-79
2021/01/11 12:15:40;;;;;;;81.93;46.63;;;52.10;2227.20;;;;;;5002519;28;20060;-78
2021/01/11 12:18:45;;;;;;;80.00;46.83;;;52.10;2227.20;;;;;;5009526;28;20039;-79
2021/01/11 12:21:34;;;;;;;94.77;56.60;;;52.10;2227.20;;;;;;4926259;29;20081;-77
2021/01/11 12:24:01;;;;;;;228.37;139.33;;;52.00;2227.20;;;;;;4947735;29;20408;-76